createdAt,value
2022-08-23T12:17:57.580Z,2.03
2022-08-23T12:20:31.407Z,2.00
2022-08-23T12:23:15.617Z,2.20
2022-08-23T12:25:43.886Z,2.17
2022-08-23T12:28:24.766Z,1.73
2022-08-23T12:30:57.639Z,2.67
2022-08-23T12:33:33.974Z,1.95
2022-08-23T12:36:05.860Z,1.90
2022-08-23T12:38:53.909Z,1.75
2022-08-23T12:41:24.069Z,1.95
2022-08-23T12:43:57.553Z,1.98
2022-08-23T12:46:38.005Z,1.90
2022-08-23T12:49:08.628Z,2.22
2022-08-23T12:51:42.900Z,2.00
2022-08-23T12:54:15.853Z,2.20
2022-08-23T12:56:47.887Z,1.95
2022-08-23T12:59:34.084Z,1.88
2022-08-23T13:02:02.758Z,2.10
2022-08-23T13:04:33.626Z,2.20
2022-08-23T13:07:04.969Z,1.90
2022-08-23T13:09:35.250Z,2.00
2022-08-23T13:12:03.099Z,1.90
2022-08-23T13:14:37.271Z,1.88
2022-08-23T13:17:17.468Z,1.60
2022-08-23T13:19:47.628Z,1.48
2022-08-23T13:22:22.263Z,1.70
2022-08-23T13:25:27.340Z,1.77
2022-08-23T13:27:54.705Z,1.92
2022-08-23T13:30:25.778Z,1.75
2022-08-23T13:32:55.081Z,1.77
2022-08-23T13:35:35.006Z,2.30
2022-08-23T13:38:13.899Z,1.70
2022-08-23T13:41:00.666Z,1.55
2022-08-23T13:43:32.042Z,1.88
2022-08-23T13:46:01.359Z,2.08
2022-08-23T13:48:31.858Z,2.00
2022-08-23T13:51:19.184Z,1.75
2022-08-23T13:53:46.773Z,1.90
2022-08-23T13:56:14.965Z,1.63
2022-08-23T13:58:42.852Z,1.83
2022-08-23T14:01:18.664Z,1.67
2022-08-23T14:03:47.364Z,1.67
2022-08-23T14:06:15.038Z,1.75
2022-08-23T14:08:44.085Z,2.10
2022-08-23T14:11:12.681Z,1.70
2022-08-23T14:13:40.333Z,1.90
2022-08-23T14:21:46.702Z,1.70
2022-08-23T14:24:15.709Z,2.05
2022-08-23T14:26:51.714Z,1.60
2022-08-23T14:29:22.399Z,1.90
2022-08-23T14:31:51.020Z,1.90
2022-08-23T14:34:18.649Z,1.83
2022-08-23T14:39:35.491Z,1.80
2022-08-23T14:42:03.602Z,1.58
2022-08-23T14:44:35.847Z,2.00
2022-08-23T14:47:04.906Z,1.75
2022-08-23T14:49:32.499Z,1.63
2022-08-23T14:52:00.179Z,1.80
2022-08-23T14:54:27.848Z,1.35
2022-08-23T14:56:56.967Z,1.60
2022-08-23T14:59:24.614Z,1.55
2022-08-23T15:01:54.818Z,1.55
2022-08-23T15:04:24.304Z,1.50
2022-08-23T15:07:16.715Z,1.40
2022-08-23T15:09:41.341Z,1.60
2022-08-23T15:12:57.235Z,1.40
2022-08-23T15:14:58.300Z,1.33
2022-08-23T15:17:30.993Z,1.80
2022-08-23T15:19:59.389Z,1.80
2022-08-23T15:22:27.023Z,1.35
2022-08-23T15:24:54.654Z,1.42
2022-08-23T15:27:23.674Z,1.27
2022-08-23T15:29:51.227Z,1.60
2022-08-23T15:32:22.715Z,1.30
2022-08-23T15:34:51.141Z,1.27
2022-08-23T15:37:21.671Z,1.00
2022-08-23T15:39:49.677Z,1.33
2022-08-23T15:42:20.083Z,1.40
2022-08-23T15:44:49.859Z,1.50
2022-08-23T15:47:21.638Z,1.30
2022-08-23T15:49:49.648Z,1.00
2022-08-23T15:52:17.365Z,1.27
2022-08-23T15:54:45.256Z,1.50
2022-08-23T15:57:15.336Z,1.40
2022-08-23T15:59:43.046Z,1.45
2022-08-23T16:02:12.132Z,1.50
2022-08-23T16:04:40.032Z,1.60
2022-08-23T16:07:08.598Z,1.38
2022-08-23T16:09:36.829Z,1.50
2022-08-23T16:12:06.083Z,1.20
2022-08-23T16:14:33.755Z,1.63
2022-08-23T16:17:02.011Z,1.50
2022-08-23T16:19:31.346Z,1.50
2022-08-23T16:22:00.555Z,1.40
2022-08-23T16:24:28.443Z,1.65
2022-08-23T16:26:56.590Z,1.20
2022-08-23T16:29:24.328Z,1.35
2022-08-23T16:31:52.046Z,1.30
2022-08-23T16:34:20.850Z,1.30
2022-08-23T16:36:53.102Z,1.60
2022-08-23T16:39:22.660Z,1.65
2022-08-23T16:41:50.282Z,1.45
2022-08-23T16:44:18.228Z,1.50
